Time;durP1;ratioP1;P1;durP2;ratioP2;P2;SDS_P1;SDS_P2;PMS_P1;PMS_P2;Temp;Humidity;BMP_temperature;BMP_pressure;BME280_temperature;BME280_humidity;BME280_pressure;Samples;Min_cycle;Max_cycle;Signal;HPM_P1;HPM_P2
2024/01/17 00:00:31;;;;;;;21.88;13.88;;;;;;;-2.17;100.00;100075.13;10193809;28;20053;-69
2024/01/17 00:05:27;;;;;;;17.95;13.15;;;;;;;-2.20;100.00;100056.88;10195496;28;20076;-68
2024/01/17 00:10:24;;;;;;;17.67;14.55;;;;;;;-2.24;100.00;100050.41;10196004;28;20042;-68
2024/01/17 00:15:22;;;;;;;17.27;13.10;;;;;;;-2.26;100.00;100052.50;10196458;28;20042;-69
2024/01/17 00:20:19;;;;;;;17.33;13.73;;;;;;;-2.25;100.00;100046.09;10194991;28;20045;-68
2024/01/17 00:25:15;;;;;;;21.55;13.27;;;;;;;-2.25;100.00;100049.59;10195698;28;20053;-69
2024/01/17 00:30:12;;;;;;;19.67;12.90;;;;;;;-2.23;100.00;100031.38;10195126;28;20073;-68
2024/01/17 00:35:09;;;;;;;18.88;12.60;;;;;;;-2.21;100.00;100023.13;10195358;28;20046;-68
2024/01/17 00:40:06;;;;;;;19.65;12.40;;;;;;;-2.25;100.00;100003.25;10195420;28;20093;-69
2024/01/17 00:45:03;;;;;;;21.25;12.10;;;;;;;-2.31;100.00;100001.56;10195458;28;20049;-68
2024/01/17 00:50:01;;;;;;;18.55;12.70;;;;;;;-2.32;100.00;100003.44;10190880;28;20057;-69
2024/01/17 00:54:58;;;;;;;21.98;12.18;;;;;;;-2.38;100.00;99975.78;10195029;28;20053;-68
2024/01/17 00:59:54;;;;;;;16.40;13.10;;;;;;;-2.24;100.00;99986.13;10194746;28;20535;-68
2024/01/17 01:04:51;;;;;;;17.67;12.48;;;;;;;-2.12;100.00;99978.75;10194256;28;20104;-69
2024/01/17 01:09:47;;;;;;;18.58;12.32;;;;;;;-2.08;100.00;99974.50;10193832;28;20108;-68
2024/01/17 01:14:44;;;;;;;19.05;11.27;;;;;;;-2.02;100.00;99962.81;10194277;28;20123;-69
2024/01/17 01:19:40;;;;;;;15.75;11.23;;;;;;;-1.97;100.00;99965.53;10191954;28;20046;-68
2024/01/17 01:24:37;;;;;;;17.05;11.18;;;;;;;-1.89;100.00;99952.72;10193435;28;20046;-69
2024/01/17 01:29:33;;;;;;;21.55;11.18;;;;;;;-1.88;100.00;99940.94;10193142;28;20049;-68
2024/01/17 01:34:30;;;;;;;21.15;10.82;;;;;;;-1.83;100.00;99943.66;10192668;28;20042;-69
2024/01/17 01:39:27;;;;;;;17.13;10.20;;;;;;;-1.81;100.00;99941.53;10194369;28;20125;-68
2024/01/17 01:44:24;;;;;;;14.85;11.05;;;;;;;-1.77;100.00;99950.69;10192765;28;20100;-69
2024/01/17 01:49:21;;;;;;;13.10;10.50;;;;;;;-1.81;100.00;99946.88;10188579;28;20050;-68
2024/01/17 01:54:20;;;;;;;17.70;11.57;;;;;;;-1.80;100.00;99943.16;10190804;28;20038;-69
2024/01/17 01:59:19;;;;;;;15.60;10.77;;;;;;;-1.77;100.00;99932.72;10192981;28;20046;-69
2024/01/17 02:04:17;;;;;;;17.55;10.35;;;;;;;-1.83;100.00;99922.22;10191224;28;20413;-69
2024/01/17 02:09:14;;;;;;;21.50;10.75;;;;;;;-1.79;100.00;99917.97;10191331;28;20505;-69
2024/01/17 02:14:11;;;;;;;22.17;12.18;;;;;;;-1.80;100.00;99911.00;10191663;28;20057;-68
2024/01/17 02:19:10;;;;;;;15.70;11.30;;;;;;;-1.83;100.00;99911.50;10192002;28;20101;-69
2024/01/17 02:24:28;;;;;;;15.75;11.15;;;;;;;-1.81;100.00;99906.69;10190556;28;20445;-68
2024/01/17 02:29:28;;;;;;;14.45;11.18;;;;;;;-1.87;100.00;99902.38;10192729;28;20054;-71
2024/01/17 02:34:25;;;;;;;16.38;10.75;;;;;;;-1.96;100.00;99892.09;10196315;28;20096;-69
2024/01/17 02:39:23;;;;;;;13.85;10.10;;;;;;;-2.00;100.00;99880.28;10199217;28;20418;-69
2024/01/17 02:44:20;;;;;;;11.00;9.77;;;;;;;-2.01;100.00;99870.66;10199457;28;20387;-69
2024/01/17 02:49:19;;;;;;;17.70;11.15;;;;;;;-2.00;100.00;99874.94;10200181;28;20425;-69
2024/01/17 02:54:16;;;;;;;21.20;9.65;;;;;;;-1.95;100.00;99861.59;10199597;28;20049;-68
2024/01/17 02:59:14;;;;;;;16.23;9.48;;;;;;;-1.96;100.00;99849.25;10198591;28;20038;-69
2024/01/17 03:04:10;;;;;;;15.30;9.35;;;;;;;-2.00;100.00;99848.13;10197972;28;20042;-69
2024/01/17 03:09:07;;;;;;;13.30;9.85;;;;;;;-2.05;100.00;99845.41;10199490;28;20057;-69
2024/01/17 03:14:04;;;;;;;15.35;9.30;;;;;;;-2.04;100.00;99832.81;10197772;28;20521;-69
2024/01/17 03:19:00;;;;;;;18.73;10.05;;;;;;;-1.99;100.00;99822.97;10199342;28;20429;-69
2024/01/17 03:23:58;;;;;;;23.63;11.05;;;;;;;-1.97;100.00;99810.13;10196274;28;20045;-69
2024/01/17 03:28:55;;;;;;;13.43;10.07;;;;;;;-2.10;100.00;99804.41;10198342;28;20104;-69
2024/01/17 03:33:51;;;;;;;20.20;11.32;;;;;;;-2.21;100.00;99800.81;10197508;28;20414;-69
2024/01/17 03:38:48;;;;;;;21.52;12.05;;;;;;;-2.35;100.00;99793.22;10198143;28;20056;-69
2024/01/17 03:43:45;;;;;;;16.92;12.48;;;;;;;-2.50;100.00;99785.06;10196951;28;20108;-68
2024/01/17 03:48:41;;;;;;;20.92;12.98;;;;;;;-2.54;100.00;99794.66;10194857;28;20402;-68
2024/01/17 03:53:38;;;;;;;20.70;13.05;;;;;;;-2.59;100.00;99776.69;10196860;28;20145;-68
2024/01/17 03:58:35;;;;;;;14.60;11.05;;;;;;;-2.61;100.00;99767.28;10196361;28;20053;-69
2024/01/17 04:03:31;;;;;;;17.10;13.02;;;;;;;-2.67;100.00;99769.13;10196658;28;20517;-68
2024/01/17 04:08:28;;;;;;;24.23;13.40;;;;;;;-2.73;100.00;99743.38;10196667;28;20121;-68
2024/01/17 04:13:24;;;;;;;19.02;13.48;;;;;;;-2.78;100.00;99744.13;10196734;28;20409;-69
2024/01/17 04:18:21;;;;;;;20.20;13.05;;;;;;;-2.76;100.00;99722.50;10196208;28;20049;-68
2024/01/17 04:23:18;;;;;;;22.90;14.25;;;;;;;-2.84;100.00;99712.22;10196180;28;20516;-68
2024/01/17 04:28:17;;;;;;;17.02;13.55;;;;;;;-2.88;100.00;99703.91;10189192;28;20655;-69
2024/01/17 04:33:14;;;;;;;17.58;12.82;;;;;;;-2.96;100.00;99699.81;10195487;28;20115;-69
2024/01/17 04:38:11;;;;;;;17.10;13.27;;;;;;;-2.97;100.00;99694.72;10195563;28;20064;-67
2024/01/17 04:43:07;;;;;;;24.23;14.00;;;;;;;-3.02;100.00;99694.66;10195841;28;20096;-68
2024/01/17 04:48:04;;;;;;;23.35;14.05;;;;;;;-2.96;100.00;99669.59;10194845;28;20460;-69
2024/01/17 04:53:01;;;;;;;24.50;13.48;;;;;;;-2.94;100.00;99675.50;10195648;28;20065;-69
2024/01/17 04:57:57;;;;;;;16.92;12.68;;;;;;;-2.96;100.00;99669.59;10187127;28;20050;-68
2024/01/17 05:02:54;;;;;;;18.15;12.40;;;;;;;-2.99;100.00;99654.88;10195018;28;20046;-70
2024/01/17 05:07:50;;;;;;;15.77;13.45;;;;;;;-2.92;100.00;99652.00;10193861;28;20134;-69
2024/01/17 05:12:47;;;;;;;21.13;13.95;;;;;;;-2.94;100.00;99635.38;10194458;28;20060;-69
2024/01/17 05:17:43;;;;;;;18.73;14.57;;;;;;;-2.94;100.00;99607.84;10194196;28;20536;-69
2024/01/17 05:22:40;;;;;;;16.30;13.82;;;;;;;-2.89;100.00;99595.28;10194028;28;20481;-69
2024/01/17 05:27:36;;;;;;;19.45;13.90;;;;;;;-2.87;100.00;99593.19;10193655;28;20058;-69
2024/01/17 05:32:33;;;;;;;21.77;15.13;;;;;;;-2.84;100.00;99598.00;10193630;28;20042;-69
2024/01/17 05:37:30;;;;;;;21.58;13.18;;;;;;;-2.84;100.00;99587.31;10190520;28;20038;-68
2024/01/17 05:42:26;;;;;;;23.50;14.93;;;;;;;-2.78;100.00;99583.59;10192063;28;20633;-69
2024/01/17 05:47:23;;;;;;;36.40;14.63;;;;;;;-2.71;100.00;99579.91;10192105;28;20405;-68
2024/01/17 05:52:19;;;;;;;16.67;13.48;;;;;;;-2.61;100.00;99566.59;10191561;28;20049;-69
2024/01/17 05:57:16;;;;;;;15.63;12.85;;;;;;;-2.63;100.00;99566.03;10192902;28;20632;-68
2024/01/17 06:02:13;;;;;;;18.75;13.65;;;;;;;-2.55;100.00;99557.53;10192442;28;20528;-68
2024/01/17 06:07:10;;;;;;;17.10;12.68;;;;;;;-2.54;100.00;99548.44;10192533;28;20046;-69
2024/01/17 06:12:06;;;;;;;21.80;12.60;;;;;;;-2.49;100.00;99540.41;10192174;28;20757;-68
2024/01/17 06:17:03;;;;;;;16.67;13.15;;;;;;;-2.50;100.00;99528.09;10192466;28;20045;-68
2024/01/17 06:22:00;;;;;;;16.13;13.00;;;;;;;-2.50;100.00;99517.41;10192032;28;20046;-68
2024/01/17 06:26:57;;;;;;;16.98;12.80;;;;;;;-2.51;100.00;99521.13;10191007;28;20531;-69
2024/01/17 06:31:57;;;;;;;16.20;12.00;;;;;;;-2.38;100.00;99507.28;10192463;28;20428;-68
2024/01/17 06:36:54;;;;;;;14.65;12.25;;;;;;;-2.35;100.00;99492.56;10191336;28;20525;-68
2024/01/17 06:41:50;;;;;;;14.05;12.43;;;;;;;-2.41;100.00;99475.69;10192320;28;20108;-68
2024/01/17 06:46:47;;;;;;;21.25;12.50;;;;;;;-2.39;100.00;99470.88;10190934;28;20060;-69
2024/01/17 06:51:44;;;;;;;15.55;12.10;;;;;;;-2.35;100.00;99482.66;10192779;28;20050;-69
2024/01/17 06:56:40;;;;;;;15.63;11.40;;;;;;;-2.36;100.00;99481.06;10190558;28;20385;-69
2024/01/17 07:01:38;;;;;;;12.30;11.07;;;;;;;-2.33;100.00;99469.81;10191258;28;20046;-69
2024/01/17 07:06:35;;;;;;;15.43;11.57;;;;;;;-2.30;100.00;99456.97;10190023;28;20045;-69
2024/01/17 07:11:33;;;;;;;12.45;10.45;;;;;;;-2.26;100.00;99458.84;10191454;28;20096;-68
2024/01/17 07:16:29;;;;;;;12.60;9.57;;;;;;;-2.26;100.00;99452.69;10189923;28;20190;-68
2024/01/17 07:21:26;;;;;;;18.98;10.52;;;;;;;-2.32;100.00;99449.22;10197861;28;20269;-68
2024/01/17 07:26:23;;;;;;;12.27;9.82;;;;;;;-2.30;100.00;99420.28;10196259;28;20038;-68
2024/01/17 07:31:20;;;;;;;14.75;9.40;;;;;;;-2.31;100.00;99428.59;10193234;28;20076;-68
2024/01/17 07:36:16;;;;;;;13.63;10.45;;;;;;;-2.26;100.00;99416.00;10197450;28;20054;-68
2024/01/17 07:41:13;;;;;;;10.35;8.57;;;;;;;-2.25;100.00;99422.16;10197344;28;20591;-69
2024/01/17 07:46:12;;;;;;;11.65;9.23;;;;;;;-2.27;100.00;99395.66;10197609;28;20042;-69
2024/01/17 07:51:09;;;;;;;16.77;10.30;;;;;;;-2.27;100.00;99387.63;10196857;28;20046;-69
2024/01/17 07:56:05;;;;;;;12.95;9.02;;;;;;;-2.33;100.00;99394.84;10197290;28;20049;-69
2024/01/17 08:01:02;;;;;;;13.15;9.50;;;;;;;-2.31;100.00;99391.91;10197025;28;20050;-69
2024/01/17 08:05:59;;;;;;;10.75;8.48;;;;;;;-2.30;100.00;99382.00;10196647;28;20042;-70
2024/01/17 08:10:56;;;;;;;10.45;8.77;;;;;;;-2.30;100.00;99376.66;10194880;28;20420;-69
2024/01/17 08:15:52;;;;;;;13.68;10.10;;;;;;;-2.30;100.00;99355.22;10195083;28;20072;-69
2024/01/17 08:20:48;;;;;;;11.95;9.88;;;;;;;-2.24;100.00;99351.50;10188047;28;20078;-69
2024/01/17 08:25:45;;;;;;;12.18;9.07;;;;;;;-2.14;100.00;99338.09;10195795;28;20555;-69
2024/01/17 08:30:42;;;;;;;11.80;8.00;;;;;;;-2.07;100.00;99337.84;10194789;28;20108;-69
2024/01/17 08:35:38;;;;;;;10.40;9.10;;;;;;;-1.97;100.00;99327.13;10194964;28;20061;-69
2024/01/17 08:40:36;;;;;;;17.95;8.48;;;;;;;-1.91;100.00;99316.13;10195757;28;20112;-70
2024/01/17 08:45:32;;;;;;;8.10;7.30;;;;;;;-1.95;100.00;99315.06;10195087;28;20523;-69
2024/01/17 08:50:29;;;;;;;12.18;7.50;;;;;;;-1.91;100.00;99308.09;10193315;28;20045;-69
2024/01/17 08:55:26;;;;;;;8.40;7.30;;;;;;;-1.83;100.00;99305.94;10194665;28;20722;-69
2024/01/17 09:00:23;;;;;;;16.30;7.10;;;;;;;-1.81;100.00;99309.16;10194795;28;20042;-69
2024/01/17 09:05:20;;;;;;;10.00;7.45;;;;;;;-1.77;100.00;99299.50;10194686;28;20046;-69
2024/01/17 09:10:17;;;;;;;10.00;7.30;;;;;;;-1.75;100.00;99297.34;10194087;28;20076;-69
2024/01/17 09:15:14;;;;;;;12.13;7.70;;;;;;;-1.68;100.00;99305.91;10192235;28;20053;-69
2024/01/17 09:20:11;;;;;;;9.13;6.70;;;;;;;-1.63;100.00;99305.91;10191154;28;20050;-69
2024/01/17 09:25:10;;;;;;;8.25;6.57;;;;;;;-1.61;100.00;99306.44;10192981;28;20517;-69
2024/01/17 09:30:07;;;;;;;9.15;6.90;;;;;;;-1.57;100.00;99299.47;10194178;28;20521;-69
2024/01/17 09:35:04;;;;;;;10.15;6.80;;;;;;;-1.45;100.00;99306.41;10193827;28;20529;-69
2024/01/17 09:40:05;;;;;;;12.02;6.95;;;;;;;-1.49;100.00;99285.47;10193802;28;20042;-69
2024/01/17 09:45:01;;;;;;;9.63;7.07;;;;;;;-1.54;100.00;99293.53;10193530;28;20053;-68
2024/01/17 09:49:58;;;;;;;12.23;7.88;;;;;;;-1.44;100.00;99294.59;10192940;28;20058;-69
2024/01/17 09:54:56;;;;;;;10.90;7.63;;;;;;;-1.54;100.00;99288.19;10191623;28;20049;-68
2024/01/17 09:59:58;;;;;;;11.95;7.70;;;;;;;-1.38;100.00;99280.09;10193165;28;20046;-69
2024/01/17 10:04:57;;;;;;;;;;;;;;;-1.38;100.00;99282.78;10191828;28;20073;-69
2024/01/17 10:09:53;;;;;;;12.77;7.30;;;;;;;-1.33;100.00;99282.75;10192092;28;19922;-68
2024/01/17 10:14:50;;;;;;;9.98;7.82;;;;;;;-1.32;100.00;99273.66;10192319;28;20050;-69
2024/01/17 10:19:47;;;;;;;11.15;7.95;;;;;;;-1.24;100.00;99256.97;10192393;28;20124;-69
2024/01/17 10:24:44;;;;;;;9.30;7.45;;;;;;;-1.33;100.00;99261.31;10191992;28;20057;-69
2024/01/17 10:29:40;;;;;;;9.05;7.43;;;;;;;-1.20;100.00;99255.34;10191770;28;20412;-69
2024/01/17 10:34:41;;;;;;;13.15;7.47;;;;;;;-1.21;100.00;99234.97;10192102;28;20456;-70
2024/01/17 10:39:37;;;;;;;8.98;7.30;;;;;;;-1.18;100.00;99237.09;10191838;28;20416;-69
2024/01/17 10:44:34;;;;;;;11.65;7.65;;;;;;;-1.12;100.00;99219.88;10191859;28;20465;-70
2024/01/17 10:49:30;;;;;;;12.85;8.18;;;;;;;-1.17;100.00;99217.25;10191599;28;20072;-70
2024/01/17 10:54:40;;;;;;;16.45;7.88;;;;;;;-1.13;100.00;99201.41;10194226;28;20286;-70
2024/01/17 10:59:41;;;;;;;11.05;7.80;;;;;;;-1.07;100.00;99193.06;10199853;28;20050;-70
2024/01/17 11:04:39;;;;;;;11.40;8.35;;;;;;;-1.10;100.00;99174.81;10198090;28;20038;-70
2024/01/17 11:09:37;;;;;;;9.05;7.68;;;;;;;-1.03;100.00;99173.72;10198745;28;20050;-70
2024/01/17 11:14:35;;;;;;;14.55;8.35;;;;;;;-1.06;100.00;99177.75;10199021;28;20161;-71
2024/01/17 11:19:32;;;;;;;12.55;8.13;;;;;;;-0.99;100.00;99167.50;10198285;28;20038;-71
2024/01/17 11:24:39;;;;;;;11.45;7.78;;;;;;;-0.96;100.00;99168.84;10198651;28;20133;-71
2024/01/17 11:29:51;;;;;;;11.75;8.15;;;;;;;-0.89;100.00;99150.53;10198334;28;20057;-71
2024/01/17 11:34:48;;;;;;;13.90;7.47;;;;;;;-0.77;100.00;99156.34;10198224;28;20165;-71
2024/01/17 11:39:46;;;;;;;13.68;8.80;;;;;;;-0.66;100.00;99147.13;10198318;28;20052;-71
2024/01/17 11:44:43;;;;;;;14.75;8.68;;;;;;;-0.61;100.00;99142.78;10197783;28;20098;-71
2024/01/17 11:49:40;;;;;;;15.95;8.48;;;;;;;-0.65;100.00;99138.00;10197062;28;20389;-71
2024/01/17 11:54:39;;;;;;;10.43;8.70;;;;;;;-0.64;100.00;99120.78;10196741;28;20096;-72
2024/01/17 11:59:36;;;;;;;8.77;7.65;;;;;;;-0.72;100.00;99108.00;10197524;28;20049;-71
2024/01/17 12:04:33;;;;;;;10.43;7.55;;;;;;;-0.54;100.00;99089.56;10195998;28;20046;-71
2024/01/17 12:09:31;;;;;;;10.38;7.80;;;;;;;-0.47;100.00;99085.44;10197235;28;20042;-71
2024/01/17 12:14:29;;;;;;;15.10;7.45;;;;;;;-0.34;100.00;99078.63;10196025;28;20057;-71
2024/01/17 12:19:25;;;;;;;18.33;9.23;;;;;;;-0.37;100.00;99063.09;10196896;28;20486;-71
2024/01/17 12:24:24;;;;;;;11.20;8.93;;;;;;;-0.25;100.00;99065.38;10194429;28;20137;-70
2024/01/17 12:29:36;;;;;;;14.27;9.45;;;;;;;-0.15;100.00;99048.31;10196314;28;20129;-71
2024/01/17 12:34:33;;;;;;;15.48;10.02;;;;;;;-0.17;100.00;99055.88;10194629;28;20049;-72
2024/01/17 12:39:34;;;;;;;13.27;9.10;;;;;;;-0.26;100.00;99043.06;10195811;28;20046;-71
2024/01/17 12:44:30;;;;;;;11.80;8.50;;;;;;;-0.30;100.00;99031.31;10194426;28;20555;-72
2024/01/17 12:49:30;;;;;;;14.40;9.18;;;;;;;-0.30;100.00;99030.50;10194832;28;20096;-71
2024/01/17 12:54:26;;;;;;;10.77;8.98;;;;;;;-0.26;100.00;99026.16;10195146;28;20053;-72
2024/01/17 12:59:23;;;;;;;13.48;8.95;;;;;;;-0.33;100.00;99031.88;10194387;28;20141;-71
2024/01/17 13:04:20;;;;;;;17.70;9.25;;;;;;;-0.37;100.00;99030.84;10194457;28;20532;-72
2024/01/17 13:09:19;;;;;;;11.63;8.43;;;;;;;-0.37;100.00;99025.50;10193824;28;20417;-71
2024/01/17 13:14:17;;;;;;;11.73;7.90;;;;;;;-0.32;100.00;99017.38;10194342;28;20042;-71
2024/01/17 13:19:15;;;;;;;13.63;9.05;;;;;;;-0.31;100.00;99018.16;10193991;28;20045;-71
2024/01/17 13:24:12;;;;;;;12.40;9.05;;;;;;;-0.32;100.00;99003.94;10193595;28;20053;-71
2024/01/17 13:29:12;;;;;;;11.20;8.38;;;;;;;-0.25;100.00;99007.06;10190750;28;20052;-71
2024/01/17 13:34:09;;;;;;;12.00;9.23;;;;;;;-0.26;100.00;99000.09;10192792;28;20050;-71
2024/01/17 13:39:09;;;;;;;14.93;8.95;;;;;;;-0.26;100.00;99000.09;10194117;28;20115;-71
2024/01/17 13:44:06;;;;;;;19.25;9.40;;;;;;;-0.27;100.00;98986.97;10192787;28;20068;-71
2024/01/17 13:49:02;;;;;;;11.23;7.78;;;;;;;-0.34;100.00;98986.50;10193210;28;20053;-71
2024/01/17 13:54:04;;;;;;;16.20;9.48;;;;;;;-0.41;100.00;98984.19;10193170;28;20132;-71
2024/01/17 13:59:01;;;;;;;8.88;7.45;;;;;;;-0.48;100.00;98986.41;10193028;28;20042;-72
2024/01/17 14:03:57;;;;;;;13.38;8.63;;;;;;;-0.37;100.00;98977.16;10193054;28;20532;-72
2024/01/17 14:08:55;;;;;;;10.88;8.50;;;;;;;-0.30;100.00;98977.59;10192300;28;20054;-71
2024/01/17 14:13:51;;;;;;;11.65;8.57;;;;;;;-0.44;100.00;98976.72;10192738;28;20104;-71
2024/01/17 14:18:48;;;;;;;11.98;8.45;;;;;;;-0.45;100.00;98975.09;10192811;28;20046;-71
2024/01/17 14:23:45;;;;;;;10.82;7.75;;;;;;;-0.45;100.00;98958.97;10192623;28;20049;-71
2024/01/17 14:28:41;;;;;;;11.50;8.40;;;;;;;-0.56;100.00;98955.59;10196267;28;20041;-71
2024/01/17 14:33:38;;;;;;;17.23;8.25;;;;;;;-0.57;100.00;98961.28;10200397;28;20050;-71
2024/01/17 14:38:35;;;;;;;17.30;8.73;;;;;;;-0.49;100.00;98947.22;10199747;28;20067;-71
2024/01/17 14:43:31;;;;;;;16.10;8.07;;;;;;;-0.58;100.00;98954.31;10199277;28;20046;-71
2024/01/17 14:48:29;;;;;;;12.63;9.15;;;;;;;-0.67;100.00;98941.53;10200135;28;20457;-71
2024/01/17 14:53:25;;;;;;;11.98;8.07;;;;;;;-0.50;100.00;98940.25;10199523;28;20041;-71
2024/01/17 14:58:22;;;;;;;14.95;8.20;;;;;;;-0.54;100.00;98923.91;10199884;28;20133;-71
2024/01/17 15:03:19;;;;;;;12.18;8.23;;;;;;;-0.57;100.00;98923.69;10199181;28;20080;-70
2024/01/17 15:08:15;;;;;;;13.32;8.27;;;;;;;-0.50;100.00;98918.78;10198944;28;20046;-71
2024/01/17 15:13:12;;;;;;;12.48;7.70;;;;;;;-0.43;100.00;98909.28;10198616;28;20421;-71
2024/01/17 15:18:08;;;;;;;11.85;7.90;;;;;;;-0.39;100.00;98904.13;10197837;28;20045;-69
2024/01/17 15:23:06;;;;;;;19.15;8.93;;;;;;;-0.41;100.00;98906.31;10198088;28;20045;-71
2024/01/17 15:28:03;;;;;;;13.27;9.95;;;;;;;-0.38;100.00;98894.97;10198121;28;20046;-71
2024/01/17 15:32:59;;;;;;;12.65;8.98;;;;;;;-0.38;100.00;98904.94;10198030;28;20057;-71
2024/01/17 15:37:56;;;;;;;13.02;9.07;;;;;;;-0.34;100.00;98912.13;10197852;28;20050;-72
2024/01/17 15:42:52;;;;;;;16.35;8.80;;;;;;;-0.39;100.00;98904.13;10197701;28;20501;-71
2024/01/17 15:47:49;;;;;;;16.55;8.70;;;;;;;-0.41;100.00;98900.94;10196557;28;20053;-71
2024/01/17 15:52:46;;;;;;;13.18;8.65;;;;;;;-0.42;100.00;98893.94;10197007;28;20501;-71
2024/01/17 15:57:42;;;;;;;14.95;8.63;;;;;;;-0.41;100.00;98900.94;10197065;28;20045;-71
2024/01/17 16:02:39;;;;;;;10.02;9.02;;;;;;;-0.45;100.00;98906.06;10196535;28;20386;-70
2024/01/17 16:07:36;;;;;;;17.77;8.95;;;;;;;-0.35;100.00;98899.75;10196751;28;20050;-71
2024/01/17 16:12:32;;;;;;;19.02;9.38;;;;;;;-0.37;100.00;98893.91;10196907;28;20046;-71
2024/01/17 16:17:30;;;;;;;16.65;8.50;;;;;;;-0.45;100.00;98899.91;10195846;28;20042;-71
2024/01/17 16:22:26;;;;;;;14.73;9.65;;;;;;;-0.29;100.00;98895.91;10197250;28;20132;-71
2024/01/17 16:27:23;;;;;;;12.82;10.05;;;;;;;-0.30;100.00;98902.41;10194666;28;20045;-71
2024/01/17 16:32:19;;;;;;;15.65;10.05;;;;;;;-0.40;100.00;98891.00;10196488;28;20453;-71
2024/01/17 16:37:15;;;;;;;15.85;10.07;;;;;;;-0.43;100.00;98887.00;10195193;28;20041;-71
2024/01/17 16:42:12;;;;;;;14.27;9.85;;;;;;;-0.43;100.00;98892.38;10195075;28;20054;-73
2024/01/17 16:47:10;;;;;;;14.43;10.15;;;;;;;-0.45;100.00;98899.91;10195067;28;20052;-73
2024/01/17 16:52:07;;;;;;;12.70;9.43;;;;;;;-0.44;100.00;98893.47;10194353;28;20042;-73
2024/01/17 16:57:03;;;;;;;15.55;9.68;;;;;;;-0.53;100.00;98892.50;10195001;28;20429;-73
2024/01/17 17:02:00;;;;;;;12.20;9.00;;;;;;;-0.48;100.00;98901.28;10195319;28;20520;-73
2024/01/17 17:06:57;;;;;;;16.15;10.18;;;;;;;-0.50;100.00;98886.56;10194428;28;20048;-72
2024/01/17 17:11:53;;;;;;;11.00;9.38;;;;;;;-0.54;100.00;98901.63;10194329;28;20046;-73
2024/01/17 17:16:50;;;;;;;18.13;9.95;;;;;;;-0.56;100.00;98903.81;10181655;28;20049;-72
2024/01/17 17:21:46;;;;;;;15.93;10.80;;;;;;;-0.57;100.00;98907.59;10195517;28;20050;-72
2024/01/17 17:26:43;;;;;;;14.45;10.57;;;;;;;-0.67;100.00;98903.94;10193749;28;20429;-73
2024/01/17 17:31:42;;;;;;;17.10;10.50;;;;;;;-0.60;100.00;98902.78;10194673;28;20060;-71
2024/01/17 17:36:38;;;;;;;16.50;10.57;;;;;;;-0.68;100.00;98913.06;10192789;28;20042;-70
2024/01/17 17:41:35;;;;;;;17.73;10.63;;;;;;;-0.59;100.00;98904.41;10193582;28;20045;-70
2024/01/17 17:46:35;;;;;;;13.10;10.13;;;;;;;-0.71;100.00;98897.56;10192851;28;20053;-70
2024/01/17 17:51:32;;;;;;;15.50;10.57;;;;;;;-0.62;100.00;98895.03;10192848;28;20056;-70
2024/01/17 17:56:28;;;;;;;16.20;10.30;;;;;;;-0.80;100.00;98888.53;10193074;28;20494;-70
2024/01/17 18:01:25;;;;;;;13.32;10.20;;;;;;;-0.76;100.00;98881.53;10192955;28;20053;-70
2024/01/17 18:06:22;;;;;;;14.48;10.27;;;;;;;-0.84;100.00;98887.50;10192116;28;20046;-71
2024/01/17 18:11:19;;;;;;;17.98;11.20;;;;;;;-0.74;100.00;98898.16;10192444;28;20046;-71
2024/01/17 18:16:17;;;;;;;14.82;11.00;;;;;;;-0.78;100.00;98890.94;10190419;28;20046;-70
2024/01/17 18:21:14;;;;;;;20.70;10.73;;;;;;;-0.86;100.00;98900.41;10191807;28;20044;-71
2024/01/17 18:26:10;;;;;;;15.98;10.00;;;;;;;-0.96;100.00;98895.97;10192060;28;20050;-71
2024/01/17 18:31:07;;;;;;;15.50;10.38;;;;;;;-0.84;100.00;98884.84;10192051;28;20049;-72
2024/01/17 18:36:04;;;;;;;16.77;10.43;;;;;;;-0.79;100.00;98894.69;10192078;28;20237;-71
2024/01/17 18:41:00;;;;;;;12.48;9.82;;;;;;;-1.01;100.00;98889.88;10191479;28;20421;-71
2024/01/17 18:45:57;;;;;;;16.42;10.65;;;;;;;-0.92;100.00;98891.63;10192315;28;20057;-71
2024/01/17 18:50:53;;;;;;;14.05;10.10;;;;;;;-1.00;100.00;98894.16;10192110;28;20611;-71
2024/01/17 18:55:50;;;;;;;16.05;10.82;;;;;;;-1.12;100.00;98889.97;10191656;28;20053;-71
2024/01/17 19:00:46;;;;;;;19.48;11.50;;;;;;;-1.00;100.00;98888.78;10191485;28;20520;-71
2024/01/17 19:05:43;;;;;;;16.02;10.38;;;;;;;-0.92;100.00;98885.47;10183216;28;20041;-71
2024/01/17 19:10:40;;;;;;;19.80;11.32;;;;;;;-1.03;100.00;98889.38;10190429;28;20505;-71
2024/01/17 19:15:36;;;;;;;20.60;11.02;;;;;;;-0.99;100.00;98901.13;10195028;28;20108;-72
2024/01/17 19:20:33;;;;;;;15.00;10.75;;;;;;;-1.00;100.00;98908.34;10197930;28;20092;-70
2024/01/17 19:25:29;;;;;;;13.80;10.57;;;;;;;-0.92;100.00;98893.53;10197831;28;20425;-71
2024/01/17 19:30:26;;;;;;;19.98;11.00;;;;;;;-1.02;100.00;98896.31;10198742;28;20489;-71
2024/01/17 19:35:24;;;;;;;17.48;10.85;;;;;;;-0.99;100.00;98903.81;10197303;28;20120;-71
2024/01/17 19:40:21;;;;;;;19.17;11.73;;;;;;;-1.17;100.00;98905.34;10198620;28;20046;-71
2024/01/17 19:45:19;;;;;;;16.98;10.77;;;;;;;-1.24;100.00;98905.66;10197010;28;20053;-72
2024/01/17 19:50:16;;;;;;;20.27;12.48;;;;;;;-1.23;100.00;98915.34;10198099;28;20050;-71
2024/01/17 19:55:12;;;;;;;16.63;10.52;;;;;;;-1.12;100.00;98914.13;10196969;28;20150;-72
2024/01/17 20:00:27;;;;;;;19.80;11.85;;;;;;;-1.21;100.00;98925.75;10190005;28;20057;-71
2024/01/17 20:05:26;;;;;;;19.65;12.52;;;;;;;-1.37;100.00;98911.69;10196938;28;20120;-71
2024/01/17 20:10:25;;;;;;;18.80;12.60;;;;;;;-1.45;100.00;98920.38;10188237;28;20076;-70
2024/01/17 20:15:21;;;;;;;18.20;12.45;;;;;;;-1.40;100.00;98925.69;10196088;28;21219;-71
2024/01/17 20:20:18;;;;;;;15.70;12.25;;;;;;;-1.42;100.00;98914.44;10196874;28;20153;-71
2024/01/17 20:25:16;;;;;;;21.63;12.10;;;;;;;-1.46;100.00;98918.75;10195058;28;20105;-70
2024/01/17 20:30:17;;;;;;;21.45;12.80;;;;;;;-1.37;100.00;98928.59;10197004;28;20046;-71
2024/01/17 20:35:14;;;;;;;21.25;11.80;;;;;;;-1.34;100.00;98932.59;10195520;28;20412;-71
2024/01/17 20:40:11;;;;;;;17.83;12.48;;;;;;;-1.38;100.00;98942.28;10195151;28;20046;-70
2024/01/17 20:45:08;;;;;;;18.65;12.30;;;;;;;-1.50;100.00;98932.72;10195301;28;20050;-71
2024/01/17 20:50:05;;;;;;;24.23;12.95;;;;;;;-1.53;100.00;98935.97;10195204;28;20498;-70
2024/01/17 20:55:02;;;;;;;16.17;12.55;;;;;;;-1.45;100.00;98936.44;10195333;28;20049;-71
2024/01/17 20:59:59;;;;;;;26.90;13.27;;;;;;;-1.38;100.00;98944.97;10195684;28;20092;-70
2024/01/17 21:04:56;;;;;;;19.85;13.13;;;;;;;-1.40;100.00;98950.59;10194430;28;20044;-70
2024/01/17 21:09:52;;;;;;;24.05;14.07;;;;;;;-1.32;100.00;98962.63;10194052;28;20049;-70
2024/01/17 21:14:49;;;;;;;23.90;14.43;;;;;;;-1.32;100.00;98967.97;10192625;28;20493;-71
2024/01/17 21:19:45;;;;;;;25.48;14.35;;;;;;;-1.39;100.00;98975.50;10194068;28;20053;-70
2024/01/17 21:24:42;;;;;;;22.65;14.02;;;;;;;-1.34;100.00;98964.78;10183328;28;20091;-70
2024/01/17 21:29:39;;;;;;;26.25;14.73;;;;;;;-1.35;100.00;98968.53;10181973;28;20065;-71
2024/01/17 21:34:35;;;;;;;21.98;14.05;;;;;;;-1.37;100.00;98976.88;10192825;28;20505;-70
2024/01/17 21:39:37;;;;;;;19.23;13.82;;;;;;;-1.43;100.00;98985.22;10193115;28;20046;-70
2024/01/17 21:44:34;;;;;;;21.55;14.30;;;;;;;-1.40;100.00;98981.97;10193470;28;20137;-69
2024/01/17 21:49:31;;;;;;;22.48;14.30;;;;;;;-1.43;100.00;98993.28;10192983;28;20068;-70
2024/01/17 21:54:27;;;;;;;17.77;13.55;;;;;;;-1.58;100.00;98992.31;10192851;28;20045;-69
2024/01/17 21:59:24;;;;;;;21.63;14.25;;;;;;;-1.66;100.00;98995.56;10193195;28;20088;-70
2024/01/17 22:04:21;;;;;;;24.13;15.68;;;;;;;-1.72;100.00;99007.41;10192568;28;20052;-69
2024/01/17 22:09:17;;;;;;;27.42;15.10;;;;;;;-1.77;100.00;99005.56;10192511;28;20049;-69
2024/01/17 22:14:14;;;;;;;20.45;14.15;;;;;;;-1.74;100.00;99020.28;10191653;28;20054;-69
2024/01/17 22:19:10;;;;;;;20.30;14.40;;;;;;;-1.84;100.00;99033.75;10192870;28;20042;-69